Terminal Aerodrome Forecast
Issued by NWS

Home | Current Version | Previous Version | Text Only | Print | Product List | Glossary Off
Versions: 1 2 3 4 5 6 7 8 9 10 11 12 13 14 15 16 17

000
FTUS43 KGRB 210500
TAFMTW
TAF
KMTW 210525Z 2106/2206 19006KT P6SM SKC
     FM210900 19004KT 3SM BR SKC
     FM211400 17010G18KT 6SM HZ SCT040 SCT120
      TEMPO 2115/2119 BKN040
     FM212300 17006KT P6SM SKC=

USA.gov is the U.S. government's official web portal to all federal, state and local government web resources and services.